createdAt,value
2022-09-10T00:00:25.788Z,18.97
2022-09-10T00:02:53.566Z,19.13
2022-09-10T00:05:21.319Z,19.71
2022-09-10T00:07:48.700Z,20.85
2022-09-10T00:10:18.647Z,20.77
2022-09-10T00:12:48.231Z,21.04
2022-09-10T00:15:16.072Z,21.15
2022-09-10T00:17:43.835Z,21.23
2022-09-10T00:20:11.324Z,21.23
2022-09-10T00:22:39.164Z,20.72
2022-09-10T00:25:08.468Z,20.70
2022-09-10T00:27:36.220Z,20.58
2022-09-10T00:30:04.118Z,21.07
2022-09-10T00:32:32.094Z,21.43
2022-09-10T00:35:01.271Z,21.09
2022-09-10T00:37:28.890Z,20.94
2022-09-10T00:39:56.970Z,20.24
2022-09-10T00:42:25.689Z,19.83
2022-09-10T00:45:02.110Z,19.20
2022-09-10T00:47:38.185Z,19.20
2022-09-10T00:50:22.090Z,19.57
2022-09-10T00:52:51.333Z,18.85
2022-09-10T00:55:19.497Z,19.67
2022-09-10T00:57:49.516Z,20.76
2022-09-10T01:00:17.465Z,20.83
2022-09-10T01:02:45.108Z,20.07
2022-09-10T01:05:13.804Z,19.55
2022-09-10T01:07:41.200Z,19.20
2022-09-10T01:10:14.001Z,19.24
2022-09-10T01:13:09.343Z,20.34
2022-09-10T01:15:54.482Z,19.56
2022-09-10T01:18:53.011Z,19.24
2022-09-10T01:21:26.843Z,18.89
2022-09-10T01:24:00.195Z,19.08
2022-09-10T01:26:55.086Z,19.68
2022-09-10T01:29:22.927Z,20.03
2022-09-10T01:31:58.548Z,20.30
2022-09-10T01:34:37.049Z,18.96
2022-09-10T01:37:09.659Z,19.68
2022-09-10T01:39:37.832Z,20.74
2022-09-10T01:42:06.824Z,20.94
2022-09-10T01:44:49.399Z,21.17
2022-09-10T01:47:36.135Z,21.02
2022-09-10T01:50:30.090Z,19.37
2022-09-10T01:53:39.941Z,18.80
2022-09-10T01:56:25.964Z,18.45
2022-09-10T01:58:57.892Z,18.19
2022-09-10T02:01:46.137Z,18.19
2022-09-10T02:04:15.261Z,18.42
2022-09-10T02:06:45.934Z,18.21
2022-09-10T02:09:15.080Z,19.30
2022-09-10T02:11:54.109Z,18.48
2022-09-10T02:14:22.675Z,18.89
2022-09-10T02:16:58.802Z,18.32
2022-09-10T02:19:27.443Z,19.52
2022-09-10T02:21:57.329Z,19.87
2022-09-10T02:24:24.992Z,19.88
2022-09-10T02:26:52.438Z,19.57
2022-09-10T02:29:20.139Z,19.75
2022-09-10T02:31:47.761Z,19.38
2022-09-10T02:34:16.085Z,18.71
2022-09-10T02:36:46.908Z,18.78
2022-09-10T02:39:14.706Z,18.93
2022-09-10T02:41:42.246Z,18.01
2022-09-10T02:44:10.220Z,19.04
2022-09-10T02:46:38.300Z,19.07
2022-09-10T02:49:06.200Z,19.11
2022-09-10T02:51:37.027Z,19.30
2022-09-10T02:54:05.023Z,19.10
2022-09-10T02:56:32.481Z,19.37
2022-09-10T02:59:00.488Z,19.63
2022-09-10T03:01:28.574Z,19.43
2022-09-10T03:03:58.837Z,19.19
2022-09-10T03:06:27.699Z,19.40
2022-09-10T03:08:57.850Z,18.65
2022-09-10T03:11:27.607Z,19.58
2022-09-10T03:13:55.514Z,19.96
2022-09-10T03:16:24.275Z,19.85
2022-09-10T03:18:52.423Z,19.58
2022-09-10T03:21:21.932Z,19.17
2022-09-10T03:23:50.944Z,17.80
2022-09-10T03:26:20.838Z,18.80
2022-09-10T03:28:48.779Z,18.78
2022-09-10T03:31:16.726Z,19.42
2022-09-10T03:33:46.129Z,19.42
2022-09-10T03:36:13.857Z,19.31
2022-09-10T03:38:42.118Z,19.04
2022-09-10T03:41:09.943Z,19.01
2022-09-10T03:43:37.817Z,18.83
2022-09-10T03:46:05.781Z,18.61
2022-09-10T03:48:35.446Z,18.92
2022-09-10T03:51:02.908Z,18.42
2022-09-10T03:53:30.493Z,18.13
2022-09-10T03:55:58.476Z,18.62
2022-09-10T03:58:26.807Z,18.36
2022-09-10T04:00:54.391Z,17.60
2022-09-10T04:03:23.077Z,18.46
2022-09-10T04:05:51.930Z,19.00
2022-09-10T04:08:20.580Z,19.06
2022-09-10T04:10:48.401Z,17.37
2022-09-10T04:13:16.369Z,17.06
2022-09-10T04:15:47.099Z,17.20
2022-09-10T04:18:14.804Z,17.49
2022-09-10T04:20:46.643Z,17.21
2022-09-10T04:23:16.444Z,17.23
2022-09-10T04:25:44.659Z,17.10
2022-09-10T04:28:12.360Z,16.98
2022-09-10T04:30:40.349Z,17.60
2022-09-10T04:33:08.503Z,17.08
2022-09-10T04:35:35.949Z,17.10
2022-09-10T04:38:04.198Z,17.43
2022-09-10T04:40:31.906Z,17.93
2022-09-10T04:42:59.278Z,18.47
2022-09-10T04:45:27.142Z,18.66
2022-09-10T04:47:56.049Z,18.60
2022-09-10T04:50:23.487Z,18.46
2022-09-10T04:53:06.162Z,18.68
2022-09-10T04:55:33.979Z,18.86
2022-09-10T04:58:02.487Z,19.01
2022-09-10T05:00:30.230Z,18.75
2022-09-10T05:02:58.627Z,18.49
2022-09-10T05:05:25.992Z,18.76
2022-09-10T05:07:53.502Z,18.52
2022-09-10T05:10:23.514Z,18.53
2022-09-10T05:12:51.023Z,18.25
2022-09-10T05:15:18.617Z,18.80
2022-09-10T05:17:47.999Z,18.90
2022-09-10T05:20:15.879Z,18.57
2022-09-10T05:22:44.921Z,18.90
2022-09-10T05:25:12.545Z,18.95
2022-09-10T05:27:40.117Z,18.96
2022-09-10T05:30:08.448Z,18.71
2022-09-10T05:32:36.287Z,18.66
2022-09-10T05:35:05.374Z,18.47
2022-09-10T05:37:37.337Z,18.70
2022-09-10T05:40:09.245Z,18.65
2022-09-10T05:42:36.779Z,18.67
2022-09-10T05:45:04.432Z,18.90
2022-09-10T05:47:34.484Z,19.01
2022-09-10T05:50:02.143Z,19.21
2022-09-10T05:52:30.955Z,19.34
2022-09-10T05:54:59.685Z,19.47
2022-09-10T05:57:27.550Z,19.10
2022-09-10T05:59:54.939Z,19.30
2022-09-10T06:02:24.452Z,19.21
2022-09-10T06:04:53.025Z,19.57
2022-09-10T06:07:20.836Z,19.57
2022-09-10T06:09:48.331Z,19.47
2022-09-10T06:12:19.325Z,18.90
2022-09-10T06:14:47.008Z,19.57
2022-09-10T06:17:14.405Z,19.47
2022-09-10T06:19:43.080Z,19.63
2022-09-10T06:22:11.691Z,19.30
2022-09-10T06:24:39.576Z,19.73
2022-09-10T06:27:07.277Z,19.73
2022-09-10T06:29:36.802Z,19.60
2022-09-10T06:32:05.275Z,19.83
2022-09-10T06:34:33.076Z,19.07
2022-09-10T06:37:02.581Z,18.86
2022-09-10T06:39:32.516Z,19.69
2022-09-10T06:42:00.578Z,19.42
2022-09-10T06:44:29.502Z,19.68
2022-09-10T06:47:32.431Z,18.82
2022-09-10T06:49:45.645Z,19.10
2022-09-10T06:52:13.064Z,19.49
2022-09-10T06:54:40.518Z,18.83
2022-09-10T06:57:13.831Z,19.38
2022-09-10T06:59:41.619Z,19.39
2022-09-10T07:02:09.444Z,19.21
2022-09-10T07:04:37.504Z,19.33
2022-09-10T07:07:05.368Z,19.52
2022-09-10T07:09:33.050Z,19.46
2022-09-10T07:12:02.923Z,19.52
2022-09-10T07:14:30.923Z,19.91
2022-09-10T07:16:58.774Z,20.04
2022-09-10T07:19:29.802Z,20.08
2022-09-10T07:21:57.402Z,20.19
2022-09-10T07:24:24.857Z,20.09
2022-09-10T07:26:53.778Z,20.70
2022-09-10T07:29:23.430Z,20.76
2022-09-10T07:31:52.466Z,20.83
2022-09-10T07:34:20.512Z,21.10
2022-09-10T07:36:47.918Z,21.10
2022-09-10T07:39:16.180Z,21.21
2022-09-10T07:41:43.998Z,21.45
2022-09-10T07:44:12.126Z,21.49
2022-09-10T07:46:39.577Z,21.11
2022-09-10T07:49:09.335Z,21.44
2022-09-10T07:51:38.322Z,21.57
2022-09-10T07:54:05.984Z,21.45
2022-09-10T07:56:34.777Z,21.32
2022-09-10T07:59:02.815Z,21.09
2022-09-10T08:01:31.814Z,19.37
2022-09-10T08:04:01.182Z,19.98
2022-09-10T08:06:28.931Z,20.67
2022-09-10T08:08:56.782Z,20.46
2022-09-10T08:11:25.313Z,20.73
2022-09-10T08:13:54.041Z,20.26
2022-09-10T08:16:23.773Z,20.15
2022-09-10T08:18:51.897Z,19.99
2022-09-10T08:21:19.876Z,20.47
2022-09-10T08:23:52.201Z,20.93
2022-09-10T08:26:23.731Z,20.83
2022-09-10T08:28:52.751Z,20.99
2022-09-10T08:31:20.492Z,20.85
2022-09-10T08:33:50.590Z,20.59
2022-09-10T08:36:18.939Z,20.50
2022-09-10T08:38:46.751Z,20.43
2022-09-10T08:41:32.276Z,20.29
2022-09-10T08:44:03.438Z,20.04
2022-09-10T08:46:35.585Z,20.48
2022-09-10T08:49:09.456Z,20.56
2022-09-10T08:51:48.899Z,20.79
2022-09-10T08:54:25.464Z,20.66
2022-09-10T08:56:55.410Z,20.56
2022-09-10T08:59:33.463Z,20.85
2022-09-10T09:02:47.074Z,20.71
2022-09-10T09:05:22.835Z,20.52
2022-09-10T09:07:51.487Z,20.77
2022-09-10T09:10:25.241Z,21.17
2022-09-10T09:13:27.976Z,20.98
2022-09-10T09:16:04.993Z,21.66
2022-09-10T09:18:35.351Z,20.59
2022-09-10T09:21:15.803Z,21.30
2022-09-10T09:24:12.693Z,20.61
2022-09-10T09:26:46.028Z,20.89
2022-09-10T09:29:27.026Z,21.56
2022-09-10T09:31:58.281Z,21.85
2022-09-10T09:34:28.840Z,21.98
2022-09-10T09:36:58.917Z,22.33
2022-09-10T09:39:30.969Z,22.35
2022-09-10T09:42:14.635Z,22.41
2022-09-10T09:45:00.448Z,21.61
2022-09-10T09:47:28.272Z,21.38
2022-09-10T09:49:56.204Z,22.35
2022-09-10T09:52:24.914Z,23.10
2022-09-10T09:55:15.979Z,22.92
2022-09-10T09:57:43.546Z,22.94
2022-09-10T10:00:36.173Z,23.55
2022-09-10T10:03:07.324Z,23.17
2022-09-10T10:05:36.184Z,22.23
2022-09-10T10:08:03.866Z,22.64
2022-09-10T10:10:31.238Z,22.99
2022-09-10T10:12:58.601Z,21.82
2022-09-10T10:15:38.780Z,22.61
2022-09-10T10:18:31.717Z,22.94
2022-09-10T10:21:24.095Z,22.05
2022-09-10T10:23:51.473Z,22.23
2022-09-10T10:26:21.960Z,22.09
2022-09-10T10:28:55.171Z,22.86
2022-09-10T10:31:23.715Z,22.96
2022-09-10T10:34:15.115Z,22.35
2022-09-10T10:37:01.500Z,22.50
2022-09-10T10:40:03.090Z,22.97
2022-09-10T10:42:47.686Z,22.92
2022-09-10T10:45:31.079Z,23.50
2022-09-10T10:48:12.380Z,23.53
2022-09-10T10:50:58.192Z,23.64
2022-09-10T10:53:44.492Z,24.05
2022-09-10T10:56:20.303Z,24.23
2022-09-10T10:59:00.093Z,24.12
2022-09-10T11:01:30.134Z,23.60
2022-09-10T11:04:23.138Z,24.64
2022-09-10T11:06:58.623Z,24.36
2022-09-10T11:09:28.828Z,25.10
2022-09-10T11:11:57.564Z,24.70
2022-09-10T11:15:04.300Z,24.01
2022-09-10T11:17:40.334Z,24.58
2022-09-10T11:20:28.456Z,24.70
2022-09-10T11:23:21.917Z,24.87
2022-09-10T11:26:05.928Z,24.34
2022-09-10T11:28:41.451Z,24.16
2022-09-10T11:31:21.831Z,24.01
2022-09-10T11:33:59.979Z,24.12
2022-09-10T11:36:31.278Z,24.32
2022-09-10T11:39:13.337Z,24.41
2022-09-10T11:41:42.587Z,24.46
2022-09-10T11:44:16.444Z,24.34
2022-09-10T11:47:11.494Z,24.44
2022-09-10T11:49:54.234Z,23.97
2022-09-10T11:52:22.471Z,24.26
2022-09-10T11:54:50.083Z,24.92
2022-09-10T11:57:27.528Z,24.32
2022-09-10T12:00:07.153Z,24.37
2022-09-10T12:02:43.466Z,24.68
2022-09-10T12:05:28.420Z,24.68
2022-09-10T12:08:11.105Z,24.51
2022-09-10T12:10:48.253Z,25.26
2022-09-10T12:13:16.055Z,25.56
2022-09-10T12:15:51.316Z,25.49
2022-09-10T12:18:21.975Z,24.59
2022-09-10T12:20:55.026Z,24.34
2022-09-10T12:23:29.832Z,24.80
2022-09-10T12:26:11.020Z,24.85
2022-09-10T12:28:41.805Z,25.04
2022-09-10T12:31:11.556Z,25.03
2022-09-10T12:33:44.925Z,24.45
2022-09-10T12:36:14.312Z,24.13
2022-09-10T12:39:20.045Z,23.97
2022-09-10T12:41:47.537Z,23.48
2022-09-10T12:44:36.667Z,24.24
2022-09-10T12:47:16.487Z,24.24
2022-09-10T12:49:50.474Z,24.24
2022-09-10T12:52:25.960Z,24.37
2022-09-10T12:55:10.620Z,24.44
2022-09-10T12:57:56.760Z,24.90
2022-09-10T13:00:25.954Z,24.53
2022-09-10T13:03:15.254Z,24.92
2022-09-10T13:05:45.493Z,24.30
2022-09-10T13:08:16.160Z,24.35
2022-09-10T13:10:55.009Z,24.19
2022-09-10T13:13:39.435Z,24.55
2022-09-10T13:16:12.474Z,24.35
2022-09-10T13:18:42.084Z,23.80
2022-09-10T13:21:24.570Z,24.07
2022-09-10T13:23:56.566Z,24.01
2022-09-10T13:26:37.412Z,24.55
2022-09-10T13:29:11.352Z,24.72
2022-09-10T13:31:49.889Z,24.93
2022-09-10T13:34:43.171Z,24.40
2022-09-10T13:37:19.642Z,23.90
2022-09-10T13:40:18.396Z,24.27
2022-09-10T13:43:09.949Z,24.57
2022-09-10T13:45:50.775Z,24.76
2022-09-10T13:48:22.766Z,24.23
2022-09-10T13:51:09.140Z,23.90
2022-09-10T13:53:40.230Z,23.98
2022-09-10T13:56:22.253Z,23.91
2022-09-10T13:58:52.536Z,24.16
2022-09-10T14:01:20.359Z,23.73
2022-09-10T14:03:48.110Z,23.92
2022-09-10T14:06:25.311Z,23.88
2022-09-10T14:08:56.636Z,24.21
2022-09-10T14:11:31.960Z,23.51
2022-09-10T14:14:05.975Z,23.73
2022-09-10T14:16:44.575Z,23.93
2022-09-10T14:19:20.111Z,24.25
2022-09-10T14:21:49.110Z,24.62
2022-09-10T14:24:34.293Z,24.57
2022-09-10T14:27:15.647Z,24.16
2022-09-10T14:29:43.675Z,24.27
2022-09-10T14:32:31.670Z,24.40
2022-09-10T14:35:20.072Z,24.17
2022-09-10T14:37:47.468Z,24.24
2022-09-10T14:40:20.894Z,24.87
2022-09-10T14:42:49.581Z,24.18
2022-09-10T14:45:39.279Z,24.48
2022-09-10T14:48:32.637Z,24.18
2022-09-10T14:51:22.784Z,23.80
2022-09-10T14:53:52.128Z,24.21
2022-09-10T14:56:33.476Z,24.57
2022-09-10T14:59:16.485Z,24.71
2022-09-10T15:01:45.608Z,23.97
2022-09-10T15:04:15.777Z,24.31
2022-09-10T15:06:46.116Z,24.97
2022-09-10T15:09:14.868Z,24.49
2022-09-10T15:11:59.027Z,24.80
2022-09-10T15:14:26.918Z,24.25
2022-09-10T15:16:54.245Z,24.03
2022-09-10T15:19:22.683Z,24.39
2022-09-10T15:21:50.948Z,24.21
2022-09-10T15:24:20.460Z,24.08
2022-09-10T15:26:48.461Z,24.11
2022-09-10T15:29:17.789Z,23.78
2022-09-10T15:31:45.193Z,23.88
2022-09-10T15:34:12.614Z,23.84
2022-09-10T15:36:40.850Z,23.67
2022-09-10T15:39:11.795Z,23.65
2022-09-10T15:41:43.833Z,23.67
2022-09-10T15:44:12.013Z,23.66
2022-09-10T15:46:45.302Z,22.90
2022-09-10T15:49:13.079Z,23.67
2022-09-10T15:51:41.398Z,23.23
2022-09-10T15:54:10.208Z,23.83
2022-09-10T15:56:38.826Z,23.73
2022-09-10T15:59:06.551Z,23.07
2022-09-10T16:01:35.696Z,22.52
2022-09-10T16:04:03.765Z,23.67
2022-09-10T16:06:36.590Z,22.76
2022-09-10T16:09:07.391Z,22.72
2022-09-10T16:11:36.333Z,23.13
2022-09-10T16:14:09.738Z,22.61
2022-09-10T16:16:37.298Z,22.64
2022-09-10T16:19:05.968Z,22.63
2022-09-10T16:21:36.306Z,22.78
2022-09-10T16:24:05.490Z,22.83
2022-09-10T16:26:36.163Z,22.08
2022-09-10T16:29:12.547Z,22.57
2022-09-10T16:31:40.355Z,22.72
2022-09-10T16:34:10.953Z,22.37
2022-09-10T16:36:39.284Z,21.97
2022-09-10T16:39:12.307Z,21.89
2022-09-10T16:41:40.868Z,22.09
2022-09-10T16:44:09.295Z,22.67
2022-09-10T16:46:38.258Z,22.14
2022-09-10T16:49:06.466Z,21.73
2022-09-10T16:51:35.086Z,21.52
2022-09-10T16:54:04.624Z,22.36
2022-09-10T16:56:45.505Z,21.67
2022-09-10T16:59:15.497Z,21.48
2022-09-10T17:01:44.246Z,21.74
2022-09-10T17:04:19.235Z,21.70
2022-09-10T17:06:47.680Z,21.26
2022-09-10T17:09:15.200Z,21.57
2022-09-10T17:11:42.654Z,21.74
2022-09-10T17:14:11.480Z,22.54
2022-09-10T17:16:40.476Z,21.59
2022-09-10T17:19:14.279Z,21.19
2022-09-10T17:21:44.302Z,21.63
2022-09-10T17:24:13.246Z,22.01
2022-09-10T17:26:41.423Z,21.79
2022-09-10T17:29:12.154Z,21.50
2022-09-10T17:31:39.727Z,21.82
2022-09-10T17:34:07.522Z,21.65
2022-09-10T17:36:35.551Z,21.21
2022-09-10T17:39:02.922Z,20.79
2022-09-10T17:41:30.939Z,20.83
2022-09-10T17:43:59.815Z,20.96
2022-09-10T17:46:27.449Z,20.84
2022-09-10T17:48:55.164Z,20.93
2022-09-10T17:51:25.029Z,20.77
2022-09-10T17:53:55.208Z,21.00
2022-09-10T17:56:24.484Z,20.42
2022-09-10T17:58:59.813Z,20.77
2022-09-10T18:01:33.078Z,20.49
2022-09-10T18:04:01.280Z,19.86
2022-09-10T18:06:29.344Z,20.03
2022-09-10T18:09:00.879Z,20.06
2022-09-10T18:11:31.656Z,20.16
2022-09-10T18:13:59.840Z,20.94
2022-09-10T18:16:33.019Z,19.86
2022-09-10T18:19:12.987Z,20.37
2022-09-10T18:21:41.666Z,21.41
2022-09-10T18:24:17.565Z,21.78
2022-09-10T18:26:49.419Z,21.60
2022-09-10T18:29:23.196Z,21.49
2022-09-10T18:31:53.673Z,21.43
2022-09-10T18:34:24.385Z,21.48
2022-09-10T18:36:54.688Z,21.61
2022-09-10T18:39:23.642Z,21.55
2022-09-10T18:41:52.071Z,21.59
2022-09-10T18:44:22.025Z,21.38
2022-09-10T18:46:51.349Z,21.48
2022-09-10T18:49:21.529Z,20.81
2022-09-10T18:51:49.627Z,21.17
2022-09-10T18:54:18.445Z,21.07
2022-09-10T18:56:48.235Z,21.19
2022-09-10T18:59:23.508Z,21.07
2022-09-10T19:01:53.467Z,20.62
2022-09-10T19:04:24.037Z,20.87
2022-09-10T19:06:52.642Z,20.97
2022-09-10T19:09:25.862Z,21.44
2022-09-10T19:11:55.128Z,21.69
2022-09-10T19:14:26.410Z,20.93
2022-09-10T19:16:55.292Z,20.25
2022-09-10T19:19:24.684Z,19.60
2022-09-10T19:21:57.133Z,19.10
2022-09-10T19:24:44.108Z,18.97
2022-09-10T19:27:14.208Z,18.89
2022-09-10T19:29:42.441Z,19.02
2022-09-10T19:32:11.534Z,18.96
2022-09-10T19:34:39.293Z,18.66
2022-09-10T19:37:07.260Z,18.90
2022-09-10T19:39:35.010Z,18.69
2022-09-10T19:42:02.773Z,18.70
2022-09-10T19:44:30.860Z,18.75
2022-09-10T19:46:58.987Z,18.69
2022-09-10T19:49:27.011Z,18.61
2022-09-10T19:51:55.037Z,18.34
2022-09-10T19:54:24.703Z,18.34
2022-09-10T19:56:52.227Z,18.19
2022-09-10T19:59:20.069Z,18.18
2022-09-10T20:01:48.174Z,18.25
2022-09-10T20:04:16.112Z,18.60
2022-09-10T20:06:45.929Z,18.35
2022-09-10T20:09:13.517Z,18.21
2022-09-10T20:11:41.288Z,18.15
2022-09-10T20:14:13.520Z,18.12
2022-09-10T20:16:45.521Z,18.14
2022-09-10T20:19:18.413Z,18.69
2022-09-10T20:21:47.829Z,18.84
2022-09-10T20:24:16.297Z,19.59
2022-09-10T20:26:46.289Z,20.23
2022-09-10T20:29:15.948Z,20.45
2022-09-10T20:31:44.485Z,20.47
2022-09-10T20:34:15.184Z,20.52
2022-09-10T20:36:42.972Z,20.35
2022-09-10T20:39:13.643Z,18.73
2022-09-10T20:41:41.984Z,17.81
2022-09-10T20:44:12.978Z,18.15
2022-09-10T20:46:44.154Z,18.28
2022-09-10T20:49:13.669Z,18.99
2022-09-10T20:51:41.403Z,18.72
2022-09-10T20:54:12.406Z,19.36
2022-09-10T20:56:40.315Z,19.79
2022-09-10T20:59:07.833Z,19.88
2022-09-10T21:01:35.365Z,19.24
2022-09-10T21:04:04.081Z,19.43
2022-09-10T21:06:32.883Z,19.43
2022-09-10T21:09:01.157Z,19.78
2022-09-10T21:11:31.130Z,19.69
2022-09-10T21:14:00.384Z,19.48
2022-09-10T21:16:28.562Z,19.71
2022-09-10T21:19:01.203Z,19.46
2022-09-10T21:21:30.640Z,19.19
2022-09-10T21:24:10.757Z,19.39
2022-09-10T21:26:39.436Z,19.50
2022-09-10T21:29:10.856Z,19.45
2022-09-10T21:31:38.710Z,19.45
2022-09-10T21:34:06.110Z,19.54
2022-09-10T21:36:35.463Z,19.14
2022-09-10T21:39:06.171Z,18.76
2022-09-10T21:41:39.911Z,17.97
2022-09-10T21:44:10.141Z,18.12
2022-09-10T21:46:37.832Z,17.76
2022-09-10T21:49:05.270Z,17.90
2022-09-10T21:51:32.637Z,17.73
2022-09-10T21:54:00.296Z,17.50
2022-09-10T21:56:29.577Z,17.47
2022-09-10T21:58:59.238Z,17.21
2022-09-10T22:01:30.145Z,16.96
2022-09-10T22:04:00.457Z,16.94
2022-09-10T22:06:29.814Z,16.82
2022-09-10T22:08:59.303Z,17.28
2022-09-10T22:11:32.538Z,17.21
2022-09-10T22:14:01.674Z,17.32
2022-09-10T22:16:33.103Z,17.28
2022-09-10T22:19:02.303Z,17.12
2022-09-10T22:21:30.197Z,17.08
2022-09-10T22:23:57.575Z,16.90
2022-09-10T22:26:28.198Z,17.35
2022-09-10T22:28:59.568Z,18.30
2022-09-10T22:31:29.100Z,19.03
2022-09-10T22:34:01.673Z,19.16
2022-09-10T22:36:31.594Z,18.99
2022-09-10T22:39:01.710Z,18.76
2022-09-10T22:41:31.599Z,18.82
2022-09-10T22:43:59.328Z,18.61
2022-09-10T22:46:27.301Z,18.41
2022-09-10T22:48:55.361Z,18.22
2022-09-10T22:51:25.265Z,18.33
2022-09-10T22:53:53.706Z,18.70
2022-09-10T22:56:26.224Z,18.60
2022-09-10T22:58:55.912Z,19.08
2022-09-10T23:01:31.289Z,19.22
2022-09-10T23:04:00.360Z,19.20
2022-09-10T23:06:30.027Z,19.32
2022-09-10T23:09:03.371Z,19.12
2022-09-10T23:11:32.731Z,19.22
2022-09-10T23:14:22.139Z,18.91
2022-09-10T23:16:51.882Z,18.80
2022-09-10T23:19:21.498Z,18.09
2022-09-10T23:21:51.323Z,18.16
2022-09-10T23:24:21.977Z,18.72
2022-09-10T23:26:49.403Z,19.03
2022-09-10T23:29:17.447Z,18.57
2022-09-10T23:31:46.056Z,18.66
2022-09-10T23:34:17.920Z,19.19
2022-09-10T23:36:47.249Z,18.75
2022-09-10T23:39:22.189Z,18.21
2022-09-10T23:41:52.104Z,18.20
2022-09-10T23:44:20.345Z,18.11
2022-09-10T23:46:48.080Z,17.43
2022-09-10T23:49:16.434Z,17.11
2022-09-10T23:51:43.823Z,17.44
2022-09-10T23:54:11.498Z,18.38
2022-09-10T23:56:39.999Z,16.88
2022-09-10T23:59:07.955Z,17.07
